sensor_id;sensor_type;location;lat;lon;timestamp;P1;durP1;ratioP1;P2;durP2;ratioP2
39522;SDS011;25202;51.216;6.806;2024-02-26T00:00:39;1.10;;;0.90;;
39522;SDS011;25202;51.216;6.806;2024-02-26T00:03:05;1.90;;;1.33;;
39522;SDS011;25202;51.216;6.806;2024-02-26T00:05:31;1.98;;;1.13;;
39522;SDS011;25202;51.216;6.806;2024-02-26T00:07:56;1.20;;;1.10;;
39522;SDS011;25202;51.216;6.806;2024-02-26T00:10:22;1.35;;;1.08;;
39522;SDS011;25202;51.216;6.806;2024-02-26T00:12:48;1.20;;;0.90;;
39522;SDS011;25202;51.216;6.806;2024-02-26T00:15:13;2.65;;;1.10;;
39522;SDS011;25202;51.216;6.806;2024-02-26T00:17:39;1.35;;;1.25;;
39522;SDS011;25202;51.216;6.806;2024-02-26T00:20:05;1.60;;;1.17;;
39522;SDS011;25202;51.216;6.806;2024-02-26T00:22:34;1.08;;;0.93;;
39522;SDS011;25202;51.216;6.806;2024-02-26T00:24:59;2.88;;;1.00;;
39522;SDS011;25202;51.216;6.806;2024-02-26T00:27:25;3.08;;;1.23;;
39522;SDS011;25202;51.216;6.806;2024-02-26T00:29:50;1.42;;;1.20;;
39522;SDS011;25202;51.216;6.806;2024-02-26T00:32:16;2.10;;;1.20;;
39522;SDS011;25202;51.216;6.806;2024-02-26T00:34:41;1.02;;;0.95;;
39522;SDS011;25202;51.216;6.806;2024-02-26T00:37:07;1.38;;;1.20;;
39522;SDS011;25202;51.216;6.806;2024-02-26T00:39:32;1.52;;;0.93;;
39522;SDS011;25202;51.216;6.806;2024-02-26T00:41:58;1.20;;;1.00;;
39522;SDS011;25202;51.216;6.806;2024-02-26T00:44:24;1.40;;;1.10;;
39522;SDS011;25202;51.216;6.806;2024-02-26T00:46:49;1.83;;;1.30;;
39522;SDS011;25202;51.216;6.806;2024-02-26T00:49:15;1.20;;;1.08;;
39522;SDS011;25202;51.216;6.806;2024-02-26T00:51:40;0.77;;;0.73;;
39522;SDS011;25202;51.216;6.806;2024-02-26T00:54:06;1.63;;;1.02;;
39522;SDS011;25202;51.216;6.806;2024-02-26T00:56:31;1.75;;;1.30;;
39522;SDS011;25202;51.216;6.806;2024-02-26T00:58:58;1.37;;;1.17;;
39522;SDS011;25202;51.216;6.806;2024-02-26T01:01:23;1.23;;;1.08;;
39522;SDS011;25202;51.216;6.806;2024-02-26T01:03:49;1.38;;;1.13;;
39522;SDS011;25202;51.216;6.806;2024-02-26T01:06:14;1.77;;;1.40;;
39522;SDS011;25202;51.216;6.806;2024-02-26T01:08:40;1.23;;;1.10;;
39522;SDS011;25202;51.216;6.806;2024-02-26T01:11:05;1.30;;;1.10;;
39522;SDS011;25202;51.216;6.806;2024-02-26T01:13:31;1.08;;;0.90;;
39522;SDS011;25202;51.216;6.806;2024-02-26T01:15:56;0.98;;;0.93;;
39522;SDS011;25202;51.216;6.806;2024-02-26T01:18:22;1.20;;;0.98;;
39522;SDS011;25202;51.216;6.806;2024-02-26T01:20:48;1.08;;;0.98;;
39522;SDS011;25202;51.216;6.806;2024-02-26T01:23:13;1.23;;;1.05;;
39522;SDS011;25202;51.216;6.806;2024-02-26T01:25:39;1.70;;;1.10;;
39522;SDS011;25202;51.216;6.806;2024-02-26T01:28:05;1.85;;;1.50;;
39522;SDS011;25202;51.216;6.806;2024-02-26T01:30:31;1.10;;;1.00;;
39522;SDS011;25202;51.216;6.806;2024-02-26T01:32:56;1.55;;;1.23;;
39522;SDS011;25202;51.216;6.806;2024-02-26T01:35:22;1.20;;;0.98;;
39522;SDS011;25202;51.216;6.806;2024-02-26T01:37:47;1.60;;;1.05;;
39522;SDS011;25202;51.216;6.806;2024-02-26T01:40:13;2.22;;;1.00;;
39522;SDS011;25202;51.216;6.806;2024-02-26T01:42:43;1.55;;;1.27;;
39522;SDS011;25202;51.216;6.806;2024-02-26T01:45:13;1.08;;;0.98;;
39522;SDS011;25202;51.216;6.806;2024-02-26T01:47:41;1.70;;;1.27;;
39522;SDS011;25202;51.216;6.806;2024-02-26T01:50:07;1.70;;;1.23;;
39522;SDS011;25202;51.216;6.806;2024-02-26T01:52:33;0.90;;;0.80;;
39522;SDS011;25202;51.216;6.806;2024-02-26T01:54:59;1.38;;;1.27;;
39522;SDS011;25202;51.216;6.806;2024-02-26T01:57:27;1.00;;;0.90;;
39522;SDS011;25202;51.216;6.806;2024-02-26T01:59:53;0.95;;;0.82;;
39522;SDS011;25202;51.216;6.806;2024-02-26T02:02:18;1.75;;;1.00;;
39522;SDS011;25202;51.216;6.806;2024-02-26T02:04:44;1.20;;;1.00;;
39522;SDS011;25202;51.216;6.806;2024-02-26T02:07:10;1.20;;;1.10;;
39522;SDS011;25202;51.216;6.806;2024-02-26T02:09:35;1.05;;;0.95;;
39522;SDS011;25202;51.216;6.806;2024-02-26T02:12:01;1.10;;;1.00;;
39522;SDS011;25202;51.216;6.806;2024-02-26T02:14:27;1.20;;;1.10;;
39522;SDS011;25202;51.216;6.806;2024-02-26T02:16:53;0.90;;;0.90;;
39522;SDS011;25202;51.216;6.806;2024-02-26T02:19:18;0.73;;;0.73;;
39522;SDS011;25202;51.216;6.806;2024-02-26T02:21:44;1.10;;;1.00;;
39522;SDS011;25202;51.216;6.806;2024-02-26T02:24:09;1.48;;;0.90;;
39522;SDS011;25202;51.216;6.806;2024-02-26T02:26:35;0.93;;;0.82;;
39522;SDS011;25202;51.216;6.806;2024-02-26T02:29:00;0.95;;;0.88;;
39522;SDS011;25202;51.216;6.806;2024-02-26T02:31:26;0.88;;;0.75;;
39522;SDS011;25202;51.216;6.806;2024-02-26T02:33:52;1.08;;;0.98;;
39522;SDS011;25202;51.216;6.806;2024-02-26T02:36:17;1.15;;;1.00;;
39522;SDS011;25202;51.216;6.806;2024-02-26T02:38:52;1.30;;;1.00;;
39522;SDS011;25202;51.216;6.806;2024-02-26T02:41:18;1.08;;;0.98;;
39522;SDS011;25202;51.216;6.806;2024-02-26T02:43:44;0.85;;;0.85;;
39522;SDS011;25202;51.216;6.806;2024-02-26T02:46:10;0.70;;;0.70;;
39522;SDS011;25202;51.216;6.806;2024-02-26T02:48:38;1.10;;;1.00;;
39522;SDS011;25202;51.216;6.806;2024-02-26T02:51:04;0.95;;;0.88;;
39522;SDS011;25202;51.216;6.806;2024-02-26T02:53:29;1.35;;;0.98;;
39522;SDS011;25202;51.216;6.806;2024-02-26T02:55:55;1.08;;;0.90;;
39522;SDS011;25202;51.216;6.806;2024-02-26T02:58:20;0.65;;;0.65;;
39522;SDS011;25202;51.216;6.806;2024-02-26T03:00:46;0.85;;;0.80;;
39522;SDS011;25202;51.216;6.806;2024-02-26T03:03:12;1.92;;;1.00;;
39522;SDS011;25202;51.216;6.806;2024-02-26T03:05:37;0.98;;;0.90;;
39522;SDS011;25202;51.216;6.806;2024-02-26T03:08:03;0.95;;;0.85;;
39522;SDS011;25202;51.216;6.806;2024-02-26T03:10:29;1.00;;;0.80;;
39522;SDS011;25202;51.216;6.806;2024-02-26T03:12:55;1.33;;;0.85;;
39522;SDS011;25202;51.216;6.806;2024-02-26T03:15:21;1.00;;;0.80;;
39522;SDS011;25202;51.216;6.806;2024-02-26T03:17:47;1.00;;;0.90;;
39522;SDS011;25202;51.216;6.806;2024-02-26T03:20:12;1.00;;;0.88;;
39522;SDS011;25202;51.216;6.806;2024-02-26T03:22:38;1.15;;;0.80;;
39522;SDS011;25202;51.216;6.806;2024-02-26T03:25:05;0.80;;;0.80;;
39522;SDS011;25202;51.216;6.806;2024-02-26T03:27:31;0.75;;;0.70;;
39522;SDS011;25202;51.216;6.806;2024-02-26T03:29:56;0.90;;;0.70;;
39522;SDS011;25202;51.216;6.806;2024-02-26T03:32:22;0.70;;;0.70;;
39522;SDS011;25202;51.216;6.806;2024-02-26T03:34:48;0.70;;;0.70;;
39522;SDS011;25202;51.216;6.806;2024-02-26T03:37:13;0.90;;;0.77;;
39522;SDS011;25202;51.216;6.806;2024-02-26T03:39:39;1.10;;;1.00;;
39522;SDS011;25202;51.216;6.806;2024-02-26T03:42:04;0.73;;;0.70;;
39522;SDS011;25202;51.216;6.806;2024-02-26T03:44:30;0.90;;;0.80;;
39522;SDS011;25202;51.216;6.806;2024-02-26T03:46:55;0.75;;;0.70;;
39522;SDS011;25202;51.216;6.806;2024-02-26T03:49:21;1.17;;;0.88;;
39522;SDS011;25202;51.216;6.806;2024-02-26T03:51:47;1.02;;;0.70;;
39522;SDS011;25202;51.216;6.806;2024-02-26T03:54:13;1.70;;;0.70;;
39522;SDS011;25202;51.216;6.806;2024-02-26T03:56:39;0.80;;;0.75;;
39522;SDS011;25202;51.216;6.806;2024-02-26T03:59:04;0.93;;;0.70;;
39522;SDS011;25202;51.216;6.806;2024-02-26T04:01:30;0.80;;;0.80;;
39522;SDS011;25202;51.216;6.806;2024-02-26T04:03:55;0.98;;;0.80;;
39522;SDS011;25202;51.216;6.806;2024-02-26T04:06:21;1.90;;;0.70;;
39522;SDS011;25202;51.216;6.806;2024-02-26T04:08:47;0.60;;;0.60;;
39522;SDS011;25202;51.216;6.806;2024-02-26T04:11:13;0.68;;;0.68;;
39522;SDS011;25202;51.216;6.806;2024-02-26T04:13:42;0.70;;;0.70;;
39522;SDS011;25202;51.216;6.806;2024-02-26T04:16:11;1.05;;;0.70;;
39522;SDS011;25202;51.216;6.806;2024-02-26T04:18:36;0.63;;;0.60;;
39522;SDS011;25202;51.216;6.806;2024-02-26T04:21:02;0.65;;;0.65;;
39522;SDS011;25202;51.216;6.806;2024-02-26T04:23:28;0.73;;;0.70;;
39522;SDS011;25202;51.216;6.806;2024-02-26T04:25:54;0.70;;;0.70;;
39522;SDS011;25202;51.216;6.806;2024-02-26T04:28:19;1.17;;;0.80;;
39522;SDS011;25202;51.216;6.806;2024-02-26T04:30:50;2.03;;;0.60;;
39522;SDS011;25202;51.216;6.806;2024-02-26T04:33:16;4.75;;;0.80;;
39522;SDS011;25202;51.216;6.806;2024-02-26T04:35:42;0.90;;;0.70;;
39522;SDS011;25202;51.216;6.806;2024-02-26T04:38:07;0.80;;;0.80;;
39522;SDS011;25202;51.216;6.806;2024-02-26T04:40:33;1.25;;;0.50;;
39522;SDS011;25202;51.216;6.806;2024-02-26T04:42:58;0.70;;;0.70;;
39522;SDS011;25202;51.216;6.806;2024-02-26T04:45:24;1.70;;;0.80;;
39522;SDS011;25202;51.216;6.806;2024-02-26T04:47:49;0.75;;;0.60;;
39522;SDS011;25202;51.216;6.806;2024-02-26T04:50:15;0.75;;;0.73;;
39522;SDS011;25202;51.216;6.806;2024-02-26T04:52:41;0.80;;;0.70;;
39522;SDS011;25202;51.216;6.806;2024-02-26T04:55:06;0.88;;;0.80;;
39522;SDS011;25202;51.216;6.806;2024-02-26T04:57:32;0.65;;;0.65;;
39522;SDS011;25202;51.216;6.806;2024-02-26T04:59:58;0.73;;;0.68;;
39522;SDS011;25202;51.216;6.806;2024-02-26T05:02:23;0.57;;;0.55;;
39522;SDS011;25202;51.216;6.806;2024-02-26T05:04:49;0.75;;;0.60;;
39522;SDS011;25202;51.216;6.806;2024-02-26T05:07:15;0.77;;;0.70;;
39522;SDS011;25202;51.216;6.806;2024-02-26T05:09:42;2.58;;;0.60;;
39522;SDS011;25202;51.216;6.806;2024-02-26T05:12:09;0.93;;;0.60;;
39522;SDS011;25202;51.216;6.806;2024-02-26T05:14:35;1.85;;;0.60;;
39522;SDS011;25202;51.216;6.806;2024-02-26T05:17:00;0.95;;;0.70;;
39522;SDS011;25202;51.216;6.806;2024-02-26T05:19:26;0.75;;;0.65;;
39522;SDS011;25202;51.216;6.806;2024-02-26T05:21:52;0.45;;;0.45;;
39522;SDS011;25202;51.216;6.806;2024-02-26T05:24:17;0.50;;;0.50;;
39522;SDS011;25202;51.216;6.806;2024-02-26T05:26:43;0.70;;;0.70;;
39522;SDS011;25202;51.216;6.806;2024-02-26T05:29:10;0.60;;;0.60;;
39522;SDS011;25202;51.216;6.806;2024-02-26T05:31:35;0.60;;;0.60;;
39522;SDS011;25202;51.216;6.806;2024-02-26T05:34:01;0.65;;;0.60;;
39522;SDS011;25202;51.216;6.806;2024-02-26T05:36:26;0.63;;;0.60;;
39522;SDS011;25202;51.216;6.806;2024-02-26T05:38:53;0.50;;;0.50;;
39522;SDS011;25202;51.216;6.806;2024-02-26T05:41:19;0.90;;;0.60;;
39522;SDS011;25202;51.216;6.806;2024-02-26T05:43:51;0.70;;;0.60;;
39522;SDS011;25202;51.216;6.806;2024-02-26T05:46:19;0.52;;;0.52;;
39522;SDS011;25202;51.216;6.806;2024-02-26T05:48:52;0.68;;;0.50;;
39522;SDS011;25202;51.216;6.806;2024-02-26T05:51:17;0.77;;;0.60;;
39522;SDS011;25202;51.216;6.806;2024-02-26T05:53:43;0.80;;;0.75;;
39522;SDS011;25202;51.216;6.806;2024-02-26T05:56:09;0.47;;;0.47;;
39522;SDS011;25202;51.216;6.806;2024-02-26T05:58:34;0.60;;;0.60;;
39522;SDS011;25202;51.216;6.806;2024-02-26T06:01:00;0.65;;;0.65;;
39522;SDS011;25202;51.216;6.806;2024-02-26T06:03:26;0.40;;;0.40;;
39522;SDS011;25202;51.216;6.806;2024-02-26T06:05:52;0.50;;;0.50;;
39522;SDS011;25202;51.216;6.806;2024-02-26T06:08:17;0.40;;;0.40;;
39522;SDS011;25202;51.216;6.806;2024-02-26T06:10:43;0.90;;;0.60;;
39522;SDS011;25202;51.216;6.806;2024-02-26T06:13:08;0.50;;;0.50;;
39522;SDS011;25202;51.216;6.806;2024-02-26T06:15:34;0.43;;;0.43;;
39522;SDS011;25202;51.216;6.806;2024-02-26T06:17:59;0.60;;;0.60;;
39522;SDS011;25202;51.216;6.806;2024-02-26T06:20:25;0.70;;;0.60;;
39522;SDS011;25202;51.216;6.806;2024-02-26T06:22:51;0.32;;;0.32;;
39522;SDS011;25202;51.216;6.806;2024-02-26T06:25:16;0.40;;;0.40;;
39522;SDS011;25202;51.216;6.806;2024-02-26T06:27:42;0.60;;;0.50;;
39522;SDS011;25202;51.216;6.806;2024-02-26T06:30:07;0.52;;;0.52;;
39522;SDS011;25202;51.216;6.806;2024-02-26T06:32:36;0.50;;;0.50;;
39522;SDS011;25202;51.216;6.806;2024-02-26T06:35:02;0.77;;;0.60;;
39522;SDS011;25202;51.216;6.806;2024-02-26T06:37:32;0.50;;;0.50;;
39522;SDS011;25202;51.216;6.806;2024-02-26T06:39:58;0.40;;;0.40;;
39522;SDS011;25202;51.216;6.806;2024-02-26T06:42:25;0.50;;;0.50;;
39522;SDS011;25202;51.216;6.806;2024-02-26T06:44:50;0.88;;;0.50;;
39522;SDS011;25202;51.216;6.806;2024-02-26T06:47:15;0.73;;;0.68;;
39522;SDS011;25202;51.216;6.806;2024-02-26T06:49:41;0.47;;;0.47;;
39522;SDS011;25202;51.216;6.806;2024-02-26T06:52:07;0.60;;;0.60;;
39522;SDS011;25202;51.216;6.806;2024-02-26T06:54:32;1.10;;;0.73;;
39522;SDS011;25202;51.216;6.806;2024-02-26T06:56:58;0.43;;;0.43;;
39522;SDS011;25202;51.216;6.806;2024-02-26T06:59:24;0.65;;;0.50;;
39522;SDS011;25202;51.216;6.806;2024-02-26T07:01:49;0.55;;;0.55;;
39522;SDS011;25202;51.216;6.806;2024-02-26T07:04:15;0.60;;;0.60;;
39522;SDS011;25202;51.216;6.806;2024-02-26T07:06:40;0.63;;;0.52;;
39522;SDS011;25202;51.216;6.806;2024-02-26T07:09:08;0.65;;;0.50;;
39522;SDS011;25202;51.216;6.806;2024-02-26T07:11:33;0.55;;;0.55;;
39522;SDS011;25202;51.216;6.806;2024-02-26T07:13:59;4.47;;;0.65;;
39522;SDS011;25202;51.216;6.806;2024-02-26T07:16:26;0.52;;;0.47;;
39522;SDS011;25202;51.216;6.806;2024-02-26T07:18:52;0.50;;;0.50;;
39522;SDS011;25202;51.216;6.806;2024-02-26T07:21:17;0.60;;;0.40;;
39522;SDS011;25202;51.216;6.806;2024-02-26T07:23:43;1.27;;;0.50;;
39522;SDS011;25202;51.216;6.806;2024-02-26T07:26:08;0.68;;;0.55;;
39522;SDS011;25202;51.216;6.806;2024-02-26T07:28:36;0.60;;;0.60;;
39522;SDS011;25202;51.216;6.806;2024-02-26T07:31:02;0.63;;;0.57;;
39522;SDS011;25202;51.216;6.806;2024-02-26T07:33:28;0.40;;;0.40;;
39522;SDS011;25202;51.216;6.806;2024-02-26T07:35:54;0.50;;;0.50;;
39522;SDS011;25202;51.216;6.806;2024-02-26T07:38:19;0.98;;;0.47;;
39522;SDS011;25202;51.216;6.806;2024-02-26T07:40:45;0.50;;;0.50;;
39522;SDS011;25202;51.216;6.806;2024-02-26T07:43:10;1.42;;;0.50;;
39522;SDS011;25202;51.216;6.806;2024-02-26T07:45:36;1.42;;;0.60;;
39522;SDS011;25202;51.216;6.806;2024-02-26T07:48:02;0.63;;;0.40;;
39522;SDS011;25202;51.216;6.806;2024-02-26T07:50:27;0.50;;;0.40;;
39522;SDS011;25202;51.216;6.806;2024-02-26T07:52:53;0.60;;;0.60;;
39522;SDS011;25202;51.216;6.806;2024-02-26T07:55:19;0.77;;;0.60;;
39522;SDS011;25202;51.216;6.806;2024-02-26T07:57:44;0.50;;;0.50;;
39522;SDS011;25202;51.216;6.806;2024-02-26T08:00:10;0.88;;;0.63;;
39522;SDS011;25202;51.216;6.806;2024-02-26T08:02:36;0.80;;;0.60;;
39522;SDS011;25202;51.216;6.806;2024-02-26T08:05:01;2.35;;;0.60;;
39522;SDS011;25202;51.216;6.806;2024-02-26T08:07:27;3.50;;;0.90;;
39522;SDS011;25202;51.216;6.806;2024-02-26T08:09:53;5.35;;;0.70;;
39522;SDS011;25202;51.216;6.806;2024-02-26T08:12:19;0.88;;;0.50;;
39522;SDS011;25202;51.216;6.806;2024-02-26T08:14:44;0.60;;;0.47;;
39522;SDS011;25202;51.216;6.806;2024-02-26T08:17:10;3.03;;;0.68;;
39522;SDS011;25202;51.216;6.806;2024-02-26T08:19:35;2.47;;;0.68;;
39522;SDS011;25202;51.216;6.806;2024-02-26T08:22:01;1.95;;;0.50;;
39522;SDS011;25202;51.216;6.806;2024-02-26T08:24:27;3.42;;;0.57;;
39522;SDS011;25202;51.216;6.806;2024-02-26T08:26:53;0.38;;;0.38;;
39522;SDS011;25202;51.216;6.806;2024-02-26T08:29:19;1.20;;;0.57;;
39522;SDS011;25202;51.216;6.806;2024-02-26T08:31:44;1.00;;;0.50;;
39522;SDS011;25202;51.216;6.806;2024-02-26T08:34:10;1.13;;;0.60;;
39522;SDS011;25202;51.216;6.806;2024-02-26T08:36:35;5.80;;;0.70;;
39522;SDS011;25202;51.216;6.806;2024-02-26T08:39:01;1.00;;;0.40;;
39522;SDS011;25202;51.216;6.806;2024-02-26T08:41:26;3.33;;;0.60;;
39522;SDS011;25202;51.216;6.806;2024-02-26T08:43:52;1.05;;;0.52;;
39522;SDS011;25202;51.216;6.806;2024-02-26T08:46:17;2.17;;;0.80;;
39522;SDS011;25202;51.216;6.806;2024-02-26T08:48:43;3.67;;;0.50;;
39522;SDS011;25202;51.216;6.806;2024-02-26T08:51:09;2.90;;;0.45;;
39522;SDS011;25202;51.216;6.806;2024-02-26T08:53:37;3.55;;;0.50;;
39522;SDS011;25202;51.216;6.806;2024-02-26T08:56:03;3.92;;;0.43;;
39522;SDS011;25202;51.216;6.806;2024-02-26T08:58:29;4.25;;;0.88;;
39522;SDS011;25202;51.216;6.806;2024-02-26T09:00:54;1.80;;;0.60;;
39522;SDS011;25202;51.216;6.806;2024-02-26T09:03:20;3.20;;;0.77;;
39522;SDS011;25202;51.216;6.806;2024-02-26T09:05:46;4.50;;;0.90;;
39522;SDS011;25202;51.216;6.806;2024-02-26T09:08:11;4.78;;;0.82;;
39522;SDS011;25202;51.216;6.806;2024-02-26T09:10:38;2.20;;;0.70;;
39522;SDS011;25202;51.216;6.806;2024-02-26T09:13:04;4.28;;;0.80;;
39522;SDS011;25202;51.216;6.806;2024-02-26T09:15:29;5.97;;;1.00;;
39522;SDS011;25202;51.216;6.806;2024-02-26T09:17:55;2.55;;;0.85;;
39522;SDS011;25202;51.216;6.806;2024-02-26T09:20:21;3.03;;;0.80;;
39522;SDS011;25202;51.216;6.806;2024-02-26T09:22:47;3.58;;;0.57;;
39522;SDS011;25202;51.216;6.806;2024-02-26T09:25:13;4.18;;;0.88;;
39522;SDS011;25202;51.216;6.806;2024-02-26T09:27:41;2.35;;;0.63;;
39522;SDS011;25202;51.216;6.806;2024-02-26T09:30:08;1.95;;;0.70;;
39522;SDS011;25202;51.216;6.806;2024-02-26T09:32:35;2.42;;;0.90;;
39522;SDS011;25202;51.216;6.806;2024-02-26T09:35:01;4.43;;;0.70;;
39522;SDS011;25202;51.216;6.806;2024-02-26T09:37:27;2.10;;;0.68;;
39522;SDS011;25202;51.216;6.806;2024-02-26T09:39:52;2.58;;;0.60;;
39522;SDS011;25202;51.216;6.806;2024-02-26T09:42:18;4.90;;;0.82;;
39522;SDS011;25202;51.216;6.806;2024-02-26T09:44:44;1.63;;;0.60;;
39522;SDS011;25202;51.216;6.806;2024-02-26T09:47:11;3.05;;;0.50;;
39522;SDS011;25202;51.216;6.806;2024-02-26T09:49:38;2.58;;;0.80;;
39522;SDS011;25202;51.216;6.806;2024-02-26T09:52:04;3.15;;;0.77;;
39522;SDS011;25202;51.216;6.806;2024-02-26T09:54:30;5.72;;;0.93;;
39522;SDS011;25202;51.216;6.806;2024-02-26T09:57:00;4.22;;;0.77;;
39522;SDS011;25202;51.216;6.806;2024-02-26T09:59:28;3.00;;;0.70;;
39522;SDS011;25202;51.216;6.806;2024-02-26T10:01:54;3.28;;;0.60;;
39522;SDS011;25202;51.216;6.806;2024-02-26T10:04:21;2.50;;;0.47;;
39522;SDS011;25202;51.216;6.806;2024-02-26T10:06:46;3.05;;;0.55;;
39522;SDS011;25202;51.216;6.806;2024-02-26T10:09:12;2.53;;;0.73;;
39522;SDS011;25202;51.216;6.806;2024-02-26T10:11:38;1.40;;;0.60;;
39522;SDS011;25202;51.216;6.806;2024-02-26T10:14:04;2.92;;;0.63;;
39522;SDS011;25202;51.216;6.806;2024-02-26T10:16:30;1.27;;;0.50;;
39522;SDS011;25202;51.216;6.806;2024-02-26T10:18:55;0.98;;;0.50;;
39522;SDS011;25202;51.216;6.806;2024-02-26T10:21:21;3.60;;;0.65;;
39522;SDS011;25202;51.216;6.806;2024-02-26T10:23:47;1.80;;;0.60;;
39522;SDS011;25202;51.216;6.806;2024-02-26T10:26:13;1.83;;;0.63;;
39522;SDS011;25202;51.216;6.806;2024-02-26T10:28:41;2.13;;;0.57;;
39522;SDS011;25202;51.216;6.806;2024-02-26T10:31:07;1.45;;;0.60;;
39522;SDS011;25202;51.216;6.806;2024-02-26T10:33:33;0.95;;;0.40;;
39522;SDS011;25202;51.216;6.806;2024-02-26T10:36:01;2.50;;;0.70;;
39522;SDS011;25202;51.216;6.806;2024-02-26T10:38:29;1.13;;;0.50;;
39522;SDS011;25202;51.216;6.806;2024-02-26T10:40:55;1.83;;;0.63;;
39522;SDS011;25202;51.216;6.806;2024-02-26T10:43:20;3.42;;;0.50;;
39522;SDS011;25202;51.216;6.806;2024-02-26T10:45:46;1.98;;;0.57;;
39522;SDS011;25202;51.216;6.806;2024-02-26T10:48:15;3.30;;;0.60;;
39522;SDS011;25202;51.216;6.806;2024-02-26T10:50:42;1.35;;;0.55;;
39522;SDS011;25202;51.216;6.806;2024-02-26T10:53:12;1.10;;;0.50;;
39522;SDS011;25202;51.216;6.806;2024-02-26T10:55:40;3.00;;;0.65;;
39522;SDS011;25202;51.216;6.806;2024-02-26T10:58:06;1.30;;;0.63;;
39522;SDS011;25202;51.216;6.806;2024-02-26T11:00:33;1.80;;;0.60;;
39522;SDS011;25202;51.216;6.806;2024-02-26T11:02:59;2.35;;;0.90;;
39522;SDS011;25202;51.216;6.806;2024-02-26T11:05:28;3.38;;;1.20;;
39522;SDS011;25202;51.216;6.806;2024-02-26T11:07:53;1.98;;;0.80;;
39522;SDS011;25202;51.216;6.806;2024-02-26T11:10:19;3.60;;;1.00;;
39522;SDS011;25202;51.216;6.806;2024-02-26T11:12:45;3.50;;;0.70;;
39522;SDS011;25202;51.216;6.806;2024-02-26T11:15:11;1.13;;;0.68;;
39522;SDS011;25202;51.216;6.806;2024-02-26T11:17:37;5.82;;;0.95;;
39522;SDS011;25202;51.216;6.806;2024-02-26T11:20:03;2.95;;;0.75;;
39522;SDS011;25202;51.216;6.806;2024-02-26T11:22:30;2.95;;;0.80;;
39522;SDS011;25202;51.216;6.806;2024-02-26T11:24:57;2.65;;;0.85;;
39522;SDS011;25202;51.216;6.806;2024-02-26T11:27:24;5.13;;;0.93;;
39522;SDS011;25202;51.216;6.806;2024-02-26T11:29:52;1.85;;;0.82;;
39522;SDS011;25202;51.216;6.806;2024-02-26T11:32:18;2.17;;;0.85;;
39522;SDS011;25202;51.216;6.806;2024-02-26T11:34:44;2.95;;;0.80;;
39522;SDS011;25202;51.216;6.806;2024-02-26T11:37:11;2.10;;;0.98;;
39522;SDS011;25202;51.216;6.806;2024-02-26T11:39:37;4.82;;;0.90;;
39522;SDS011;25202;51.216;6.806;2024-02-26T11:42:05;6.57;;;0.98;;
39522;SDS011;25202;51.216;6.806;2024-02-26T11:44:31;4.30;;;1.00;;
39522;SDS011;25202;51.216;6.806;2024-02-26T11:46:57;5.95;;;1.20;;
39522;SDS011;25202;51.216;6.806;2024-02-26T11:51:52;3.10;;;0.77;;
39522;SDS011;25202;51.216;6.806;2024-02-26T11:57:03;3.13;;;0.88;;
39522;SDS011;25202;51.216;6.806;2024-02-26T11:59:38;2.75;;;1.00;;
39522;SDS011;25202;51.216;6.806;2024-02-26T12:02:04;2.33;;;0.98;;
39522;SDS011;25202;51.216;6.806;2024-02-26T12:04:30;2.70;;;0.88;;
39522;SDS011;25202;51.216;6.806;2024-02-26T12:07:02;5.55;;;1.30;;
39522;SDS011;25202;51.216;6.806;2024-02-26T12:09:32;2.88;;;1.10;;
39522;SDS011;25202;51.216;6.806;2024-02-26T12:14:37;3.28;;;1.23;;
39522;SDS011;25202;51.216;6.806;2024-02-26T12:17:18;3.50;;;1.10;;
39522;SDS011;25202;51.216;6.806;2024-02-26T12:19:48;6.72;;;1.42;;
39522;SDS011;25202;51.216;6.806;2024-02-26T12:22:13;3.13;;;1.00;;
39522;SDS011;25202;51.216;6.806;2024-02-26T12:24:42;3.38;;;1.30;;
39522;SDS011;25202;51.216;6.806;2024-02-26T12:27:08;6.10;;;1.35;;
39522;SDS011;25202;51.216;6.806;2024-02-26T12:29:34;4.25;;;1.45;;
39522;SDS011;25202;51.216;6.806;2024-02-26T12:31:59;2.40;;;1.25;;
39522;SDS011;25202;51.216;6.806;2024-02-26T12:34:25;2.50;;;1.10;;
39522;SDS011;25202;51.216;6.806;2024-02-26T12:36:53;4.00;;;1.10;;
39522;SDS011;25202;51.216;6.806;2024-02-26T12:39:19;4.55;;;1.00;;
39522;SDS011;25202;51.216;6.806;2024-02-26T12:41:46;4.75;;;1.42;;
39522;SDS011;25202;51.216;6.806;2024-02-26T12:44:17;5.28;;;1.27;;
39522;SDS011;25202;51.216;6.806;2024-02-26T12:46:43;5.78;;;1.10;;
39522;SDS011;25202;51.216;6.806;2024-02-26T12:49:08;5.32;;;1.50;;
39522;SDS011;25202;51.216;6.806;2024-02-26T12:51:40;5.05;;;1.23;;
39522;SDS011;25202;51.216;6.806;2024-02-26T12:54:07;6.45;;;1.50;;
39522;SDS011;25202;51.216;6.806;2024-02-26T12:56:32;2.80;;;1.45;;
39522;SDS011;25202;51.216;6.806;2024-02-26T12:58:58;4.07;;;1.60;;
39522;SDS011;25202;51.216;6.806;2024-02-26T13:01:24;6.80;;;1.65;;
39522;SDS011;25202;51.216;6.806;2024-02-26T13:03:50;5.38;;;1.45;;
39522;SDS011;25202;51.216;6.806;2024-02-26T13:06:17;5.35;;;1.67;;
39522;SDS011;25202;51.216;6.806;2024-02-26T13:08:43;4.65;;;1.40;;
39522;SDS011;25202;51.216;6.806;2024-02-26T13:11:10;4.32;;;1.48;;
39522;SDS011;25202;51.216;6.806;2024-02-26T13:13:36;6.22;;;1.60;;
39522;SDS011;25202;51.216;6.806;2024-02-26T13:16:05;5.63;;;1.55;;
39522;SDS011;25202;51.216;6.806;2024-02-26T13:18:33;4.40;;;2.00;;
39522;SDS011;25202;51.216;6.806;2024-02-26T13:23:34;3.00;;;1.48;;
39522;SDS011;25202;51.216;6.806;2024-02-26T13:26:00;5.90;;;2.00;;
39522;SDS011;25202;51.216;6.806;2024-02-26T13:28:25;4.35;;;1.60;;
39522;SDS011;25202;51.216;6.806;2024-02-26T13:30:56;3.90;;;1.60;;
39522;SDS011;25202;51.216;6.806;2024-02-26T13:33:22;6.25;;;1.85;;
39522;SDS011;25202;51.216;6.806;2024-02-26T13:35:49;2.00;;;1.30;;
39522;SDS011;25202;51.216;6.806;2024-02-26T13:38:15;3.67;;;1.45;;
39522;SDS011;25202;51.216;6.806;2024-02-26T13:40:40;2.80;;;1.60;;
39522;SDS011;25202;51.216;6.806;2024-02-26T13:43:06;3.75;;;1.60;;
39522;SDS011;25202;51.216;6.806;2024-02-26T13:45:34;5.10;;;1.70;;
39522;SDS011;25202;51.216;6.806;2024-02-26T13:48:05;3.20;;;1.52;;
39522;SDS011;25202;51.216;6.806;2024-02-26T13:50:31;6.68;;;1.83;;
39522;SDS011;25202;51.216;6.806;2024-02-26T13:52:57;6.65;;;1.95;;
39522;SDS011;25202;51.216;6.806;2024-02-26T13:55:26;5.53;;;1.50;;
39522;SDS011;25202;51.216;6.806;2024-02-26T13:57:53;3.38;;;1.42;;
39522;SDS011;25202;51.216;6.806;2024-02-26T14:00:20;5.68;;;1.88;;
39522;SDS011;25202;51.216;6.806;2024-02-26T14:02:45;3.50;;;1.70;;
39522;SDS011;25202;51.216;6.806;2024-02-26T14:05:11;3.30;;;1.80;;
39522;SDS011;25202;51.216;6.806;2024-02-26T14:07:37;4.93;;;1.90;;
39522;SDS011;25202;51.216;6.806;2024-02-26T14:10:03;4.55;;;1.67;;
39522;SDS011;25202;51.216;6.806;2024-02-26T14:12:29;6.47;;;1.98;;
39522;SDS011;25202;51.216;6.806;2024-02-26T14:14:54;4.90;;;1.65;;
39522;SDS011;25202;51.216;6.806;2024-02-26T14:17:21;4.55;;;1.60;;
39522;SDS011;25202;51.216;6.806;2024-02-26T14:19:47;6.22;;;1.88;;
39522;SDS011;25202;51.216;6.806;2024-02-26T14:22:13;3.58;;;1.80;;
39522;SDS011;25202;51.216;6.806;2024-02-26T14:24:39;6.40;;;1.70;;
39522;SDS011;25202;51.216;6.806;2024-02-26T14:27:06;6.00;;;2.25;;
39522;SDS011;25202;51.216;6.806;2024-02-26T14:29:34;10.18;;;1.83;;
39522;SDS011;25202;51.216;6.806;2024-02-26T14:31:59;4.75;;;1.77;;
39522;SDS011;25202;51.216;6.806;2024-02-26T14:34:26;4.15;;;1.92;;
39522;SDS011;25202;51.216;6.806;2024-02-26T14:36:52;6.63;;;1.73;;
39522;SDS011;25202;51.216;6.806;2024-02-26T14:39:17;8.50;;;1.98;;
39522;SDS011;25202;51.216;6.806;2024-02-26T14:41:43;4.18;;;1.73;;
39522;SDS011;25202;51.216;6.806;2024-02-26T14:44:08;5.65;;;1.70;;
39522;SDS011;25202;51.216;6.806;2024-02-26T14:46:34;5.30;;;1.90;;
39522;SDS011;25202;51.216;6.806;2024-02-26T14:49:01;3.65;;;1.45;;
39522;SDS011;25202;51.216;6.806;2024-02-26T14:51:27;4.22;;;1.80;;